sensor_id;sensor_type;location;lat;lon;timestamp;pressure;altitude;pressure_sealevel;temperature;humidity
59240;BME280;45010;53.640;10.578;2023-06-26T00:00:50;100838.06;;;27.98;46.22
59240;BME280;45010;53.640;10.578;2023-06-26T00:03:50;100831.06;;;27.97;46.21
59240;BME280;45010;53.640;10.578;2023-06-26T00:06:50;100833.72;;;27.97;45.92
59240;BME280;45010;53.640;10.578;2023-06-26T00:09:51;100824.06;;;27.96;45.66
59240;BME280;45010;53.640;10.578;2023-06-26T00:12:51;100824.31;;;27.95;46.04
59240;BME280;45010;53.640;10.578;2023-06-26T00:15:51;100831.56;;;27.94;45.70
59240;BME280;45010;53.640;10.578;2023-06-26T00:18:52;100821.03;;;27.87;45.76
59240;BME280;45010;53.640;10.578;2023-06-26T00:21:53;100822.16;;;27.91;45.33
59240;BME280;45010;53.640;10.578;2023-06-26T00:24:53;100809.22;;;27.83;45.59
59240;BME280;45010;53.640;10.578;2023-06-26T00:27:54;100815.13;;;27.85;45.81
59240;BME280;45010;53.640;10.578;2023-06-26T00:30:54;100816.94;;;27.79;45.59
59240;BME280;45010;53.640;10.578;2023-06-26T00:33:54;100822.25;;;27.74;46.02
59240;BME280;45010;53.640;10.578;2023-06-26T00:36:55;100802.00;;;27.61;46.10
59240;BME280;45010;53.640;10.578;2023-06-26T00:39:55;100819.19;;;27.65;46.06
59240;BME280;45010;53.640;10.578;2023-06-26T00:42:55;100806.19;;;27.57;46.16
59240;BME280;45010;53.640;10.578;2023-06-26T00:45:56;100814.03;;;27.59;46.03
59240;BME280;45010;53.640;10.578;2023-06-26T00:48:58;100809.13;;;27.56;45.67
59240;BME280;45010;53.640;10.578;2023-06-26T00:51:59;100803.44;;;27.52;46.26
59240;BME280;45010;53.640;10.578;2023-06-26T00:54:59;100795.03;;;27.43;45.72
59240;BME280;45010;53.640;10.578;2023-06-26T00:58:00;100787.53;;;27.40;45.86
59240;BME280;45010;53.640;10.578;2023-06-26T01:01:00;100805.75;;;27.43;45.88
59240;BME280;45010;53.640;10.578;2023-06-26T01:04:01;100801.47;;;27.42;45.64
59240;BME280;45010;53.640;10.578;2023-06-26T01:07:02;100800.91;;;27.40;45.73
59240;BME280;45010;53.640;10.578;2023-06-26T01:10:07;100796.03;;;27.37;46.19
59240;BME280;45010;53.640;10.578;2023-06-26T01:13:08;100787.63;;;27.28;46.10
59240;BME280;45010;53.640;10.578;2023-06-26T01:16:09;100775.00;;;27.23;46.11
59240;BME280;45010;53.640;10.578;2023-06-26T01:19:13;100781.72;;;27.26;46.35
59240;BME280;45010;53.640;10.578;2023-06-26T01:22:16;100785.69;;;27.23;45.85
59240;BME280;45010;53.640;10.578;2023-06-26T01:28:22;100777.53;;;27.13;46.29
59240;BME280;45010;53.640;10.578;2023-06-26T01:31:23;100778.59;;;27.12;46.04
59240;BME280;45010;53.640;10.578;2023-06-26T01:34:24;100767.75;;;27.02;46.13
59240;BME280;45010;53.640;10.578;2023-06-26T01:37:25;100775.03;;;27.06;45.96
59240;BME280;45010;53.640;10.578;2023-06-26T01:40:25;100775.53;;;27.03;45.91
59240;BME280;45010;53.640;10.578;2023-06-26T01:47:04;100765.00;;;26.96;46.46
59240;BME280;45010;53.640;10.578;2023-06-26T01:50:16;100760.13;;;26.93;46.13
59240;BME280;45010;53.640;10.578;2023-06-26T01:53:20;100755.25;;;26.90;46.10
59240;BME280;45010;53.640;10.578;2023-06-26T01:56:24;100746.66;;;26.88;46.55
59240;BME280;45010;53.640;10.578;2023-06-26T01:59:25;100735.31;;;26.81;46.25
59240;BME280;45010;53.640;10.578;2023-06-26T02:02:29;100746.41;;;26.90;46.26
59240;BME280;45010;53.640;10.578;2023-06-26T02:05:29;100747.22;;;26.90;46.19
59240;BME280;45010;53.640;10.578;2023-06-26T02:08:31;100736.75;;;26.89;46.30
59240;BME280;45010;53.640;10.578;2023-06-26T02:11:31;100730.59;;;26.88;46.25
59240;BME280;45010;53.640;10.578;2023-06-26T02:14:31;100732.72;;;26.86;46.24
59240;BME280;45010;53.640;10.578;2023-06-26T02:17:32;100736.44;;;26.85;45.82
59240;BME280;45010;53.640;10.578;2023-06-26T02:20:32;100725.75;;;26.85;45.85
59240;BME280;45010;53.640;10.578;2023-06-26T02:23:33;100712.78;;;26.77;45.79
59240;BME280;45010;53.640;10.578;2023-06-26T02:26:33;100716.66;;;26.86;45.95
59240;BME280;45010;53.640;10.578;2023-06-26T02:29:34;100715.59;;;26.87;46.21
59240;BME280;45010;53.640;10.578;2023-06-26T02:32:34;100719.09;;;26.88;45.89
59240;BME280;45010;53.640;10.578;2023-06-26T02:35:35;100714.47;;;26.83;45.87
59240;BME280;45010;53.640;10.578;2023-06-26T02:38:35;100719.03;;;26.82;45.92
59240;BME280;45010;53.640;10.578;2023-06-26T02:41:35;100710.44;;;26.80;46.00
59240;BME280;45010;53.640;10.578;2023-06-26T02:44:36;100713.91;;;26.81;46.04
59240;BME280;45010;53.640;10.578;2023-06-26T02:47:36;100706.94;;;26.80;46.11
59240;BME280;45010;53.640;10.578;2023-06-26T02:50:39;100704.50;;;26.78;45.76
59240;BME280;45010;53.640;10.578;2023-06-26T02:53:39;100705.81;;;26.76;45.81
59240;BME280;45010;53.640;10.578;2023-06-26T02:56:40;100708.72;;;26.74;45.78
59240;BME280;45010;53.640;10.578;2023-06-26T02:59:40;100705.50;;;26.72;45.71
59240;BME280;45010;53.640;10.578;2023-06-26T03:02:40;100705.50;;;26.72;45.92
59240;BME280;45010;53.640;10.578;2023-06-26T03:05:41;100704.69;;;26.71;45.82
59240;BME280;45010;53.640;10.578;2023-06-26T03:08:41;100696.41;;;26.73;46.07
59240;BME280;45010;53.640;10.578;2023-06-26T03:11:42;100670.31;;;26.63;45.78
59240;BME280;45010;53.640;10.578;2023-06-26T03:14:42;100680.63;;;26.71;45.61
59240;BME280;45010;53.640;10.578;2023-06-26T03:17:43;100685.38;;;26.69;45.62
59240;BME280;45010;53.640;10.578;2023-06-26T03:20:43;100682.94;;;26.68;46.04
59240;BME280;45010;53.640;10.578;2023-06-26T03:23:43;100688.00;;;26.64;45.77
59240;BME280;45010;53.640;10.578;2023-06-26T03:26:44;100680.22;;;26.63;46.12
59240;BME280;45010;53.640;10.578;2023-06-26T03:29:44;100676.19;;;26.60;46.50
59240;BME280;45010;53.640;10.578;2023-06-26T03:32:44;100672.69;;;26.59;46.07
59240;BME280;45010;53.640;10.578;2023-06-26T03:35:45;100676.19;;;26.60;45.89
59240;BME280;45010;53.640;10.578;2023-06-26T03:38:45;100676.19;;;26.60;46.36
59240;BME280;45010;53.640;10.578;2023-06-26T03:41:45;100675.34;;;26.59;45.96
59240;BME280;45010;53.640;10.578;2023-06-26T03:44:46;100665.47;;;26.60;45.97
59240;BME280;45010;53.640;10.578;2023-06-26T03:47:46;100658.19;;;26.55;45.99
59240;BME280;45010;53.640;10.578;2023-06-26T03:50:50;100664.34;;;26.56;46.35
59240;BME280;45010;53.640;10.578;2023-06-26T03:53:50;100658.38;;;26.49;45.95
59240;BME280;45010;53.640;10.578;2023-06-26T03:56:51;100667.50;;;26.53;46.39
59240;BME280;45010;53.640;10.578;2023-06-26T03:59:51;100667.50;;;26.53;46.53
59240;BME280;45010;53.640;10.578;2023-06-26T04:02:52;100665.34;;;26.50;46.68
59240;BME280;45010;53.640;10.578;2023-06-26T04:05:52;100663.72;;;26.49;46.70
59240;BME280;45010;53.640;10.578;2023-06-26T04:08:53;100664.78;;;26.48;46.72
59240;BME280;45010;53.640;10.578;2023-06-26T04:11:53;100657.78;;;26.46;46.44
59240;BME280;45010;53.640;10.578;2023-06-26T04:14:53;100632.47;;;26.32;46.41
59240;BME280;45010;53.640;10.578;2023-06-26T04:17:54;100640.06;;;26.40;46.87
59240;BME280;45010;53.640;10.578;2023-06-26T04:21:11;100637.44;;;26.45;46.52
59240;BME280;45010;53.640;10.578;2023-06-26T04:24:12;100637.44;;;26.45;46.77
59240;BME280;45010;53.640;10.578;2023-06-26T04:27:12;100635.84;;;26.44;46.45
59240;BME280;45010;53.640;10.578;2023-06-26T04:30:14;100639.56;;;26.43;46.91
59240;BME280;45010;53.640;10.578;2023-06-26T04:33:14;100631.31;;;26.45;46.99
59240;BME280;45010;53.640;10.578;2023-06-26T04:36:15;100633.41;;;26.43;47.06
59240;BME280;45010;53.640;10.578;2023-06-26T04:39:16;100636.34;;;26.41;46.82
59240;BME280;45010;53.640;10.578;2023-06-26T04:42:16;100633.09;;;26.39;47.11
59240;BME280;45010;53.640;10.578;2023-06-26T04:45:17;100631.22;;;26.40;47.07
59240;BME280;45010;53.640;10.578;2023-06-26T04:48:17;100596.00;;;26.26;47.08
59240;BME280;45010;53.640;10.578;2023-06-26T04:51:18;100614.88;;;26.36;47.48
59240;BME280;45010;53.640;10.578;2023-06-26T04:54:21;100587.88;;;26.21;47.43
59240;BME280;45010;53.640;10.578;2023-06-26T04:57:21;100617.56;;;26.36;47.29
59240;BME280;45010;53.640;10.578;2023-06-26T05:00:21;100614.88;;;26.36;47.55
59240;BME280;45010;53.640;10.578;2023-06-26T05:03:22;100606.84;;;26.36;47.73
59240;BME280;45010;53.640;10.578;2023-06-26T05:06:23;100603.13;;;26.37;47.75
59240;BME280;45010;53.640;10.578;2023-06-26T05:09:23;100601.50;;;26.36;47.66
59240;BME280;45010;53.640;10.578;2023-06-26T05:12:23;100609.03;;;26.39;47.80
59240;BME280;45010;53.640;10.578;2023-06-26T05:15:24;100588.53;;;26.28;47.83
59240;BME280;45010;53.640;10.578;2023-06-26T05:18:24;100594.88;;;26.39;47.94
59240;BME280;45010;53.640;10.578;2023-06-26T05:21:25;100596.47;;;26.40;47.97
59240;BME280;45010;53.640;10.578;2023-06-26T05:24:25;100590.31;;;26.39;48.60
59240;BME280;45010;53.640;10.578;2023-06-26T05:27:26;100582.28;;;26.39;48.28
59240;BME280;45010;53.640;10.578;2023-06-26T05:30:27;100581.22;;;26.40;48.75
59240;BME280;45010;53.640;10.578;2023-06-26T05:33:28;100579.38;;;26.41;48.45
59240;BME280;45010;53.640;10.578;2023-06-26T05:36:29;100579.91;;;26.43;48.69
59240;BME280;45010;53.640;10.578;2023-06-26T05:39:31;100571.66;;;26.44;48.77
59240;BME280;45010;53.640;10.578;2023-06-26T05:42:32;100570.88;;;26.44;48.55
59240;BME280;45010;53.640;10.578;2023-06-26T05:45:33;100565.53;;;26.44;48.42
59240;BME280;45010;53.640;10.578;2023-06-26T05:48:33;100563.63;;;26.44;48.82
59240;BME280;45010;53.640;10.578;2023-06-26T05:51:34;100552.31;;;26.37;48.50
59240;BME280;45010;53.640;10.578;2023-06-26T05:54:34;100565.25;;;26.45;48.64
59240;BME280;45010;53.640;10.578;2023-06-26T05:57:37;100561.78;;;26.45;48.69
59240;BME280;45010;53.640;10.578;2023-06-26T06:00:39;100553.75;;;26.45;48.45
59240;BME280;45010;53.640;10.578;2023-06-26T06:03:40;100551.88;;;26.45;48.57
59240;BME280;45010;53.640;10.578;2023-06-26T06:06:40;100546.53;;;26.45;48.27
59240;BME280;45010;53.640;10.578;2023-06-26T06:09:41;100537.88;;;26.38;48.38
59240;BME280;45010;53.640;10.578;2023-06-26T06:12:41;100551.09;;;26.45;48.25
59240;BME280;45010;53.640;10.578;2023-06-26T06:15:41;100544.91;;;26.44;48.59
59240;BME280;45010;53.640;10.578;2023-06-26T06:18:42;100536.66;;;26.46;48.15
59240;BME280;45010;53.640;10.578;2023-06-26T06:21:42;100544.44;;;26.48;48.23
59240;BME280;45010;53.640;10.578;2023-06-26T06:24:43;100543.38;;;26.49;48.33
59240;BME280;45010;53.640;10.578;2023-06-26T06:27:44;100545.22;;;26.48;48.28
59240;BME280;45010;53.640;10.578;2023-06-26T06:30:44;100511.59;;;26.30;47.62
59240;BME280;45010;53.640;10.578;2023-06-26T06:33:47;100536.97;;;26.50;47.76
59240;BME280;45010;53.640;10.578;2023-06-26T06:36:47;100533.22;;;26.51;47.72
59240;BME280;45010;53.640;10.578;2023-06-26T06:39:47;100512.53;;;26.41;48.05
59240;BME280;45010;53.640;10.578;2023-06-26T06:42:48;100531.09;;;26.53;48.11
59240;BME280;45010;53.640;10.578;2023-06-26T06:45:48;100537.28;;;26.53;47.92
59240;BME280;45010;53.640;10.578;2023-06-26T06:48:48;100527.41;;;26.54;47.76
59240;BME280;45010;53.640;10.578;2023-06-26T06:51:49;100523.66;;;26.55;47.77
59240;BME280;45010;53.640;10.578;2023-06-26T06:54:57;100514.50;;;26.51;47.85
59240;BME280;45010;53.640;10.578;2023-06-26T06:58:05;100509.22;;;26.56;47.77
59240;BME280;45010;53.640;10.578;2023-06-26T07:01:05;100506.31;;;26.57;47.72
59240;BME280;45010;53.640;10.578;2023-06-26T07:04:05;100509.78;;;26.58;47.54
59240;BME280;45010;53.640;10.578;2023-06-26T07:07:06;100507.09;;;26.58;48.02
59240;BME280;45010;53.640;10.578;2023-06-26T07:10:09;100495.31;;;26.54;47.99
59240;BME280;45010;53.640;10.578;2023-06-26T07:13:09;100502.31;;;26.60;47.86
59240;BME280;45010;53.640;10.578;2023-06-26T07:16:10;100491.34;;;26.62;47.63
59240;BME280;45010;53.640;10.578;2023-06-26T07:19:11;100489.50;;;26.62;47.84
59240;BME280;45010;53.640;10.578;2023-06-26T07:22:11;100497.03;;;26.65;48.02
59240;BME280;45010;53.640;10.578;2023-06-26T07:25:12;100493.28;;;26.66;47.47
59240;BME280;45010;53.640;10.578;2023-06-26T07:28:12;100483.38;;;26.67;47.64
59240;BME280;45010;53.640;10.578;2023-06-26T07:31:12;100484.22;;;26.67;47.64
59240;BME280;45010;53.640;10.578;2023-06-26T07:34:13;100486.38;;;26.70;47.65
59240;BME280;45010;53.640;10.578;2023-06-26T07:37:13;100475.63;;;26.65;47.64
59240;BME280;45010;53.640;10.578;2023-06-26T07:40:14;100476.25;;;26.72;48.08
59240;BME280;45010;53.640;10.578;2023-06-26T07:43:17;100464.22;;;26.75;48.08
59240;BME280;45010;53.640;10.578;2023-06-26T07:46:18;100455.94;;;26.77;47.80
59240;BME280;45010;53.640;10.578;2023-06-26T07:49:18;100461.28;;;26.77;47.42
59240;BME280;45010;53.640;10.578;2023-06-26T07:52:19;100457.56;;;26.78;47.33
59240;BME280;45010;53.640;10.578;2023-06-26T07:55:19;100439.88;;;26.77;47.64
59240;BME280;45010;53.640;10.578;2023-06-26T07:58:20;100427.25;;;26.72;47.78
59240;BME280;45010;53.640;10.578;2023-06-26T08:01:20;100429.19;;;26.77;47.74
59240;BME280;45010;53.640;10.578;2023-06-26T08:04:22;100419.00;;;26.73;48.17
59240;BME280;45010;53.640;10.578;2023-06-26T08:07:23;100423.88;;;26.82;47.95
59240;BME280;45010;53.640;10.578;2023-06-26T08:10:23;100422.56;;;26.84;47.84
59240;BME280;45010;53.640;10.578;2023-06-26T08:13:24;100425.53;;;26.88;48.35
59240;BME280;45010;53.640;10.578;2023-06-26T08:16:25;100422.31;;;26.86;48.32
59240;BME280;45010;53.640;10.578;2023-06-26T08:19:25;100433.63;;;26.93;48.34
59240;BME280;45010;53.640;10.578;2023-06-26T08:22:26;100438.50;;;26.96;47.99
59240;BME280;45010;53.640;10.578;2023-06-26T08:25:26;100437.19;;;26.99;48.07
59240;BME280;45010;53.640;10.578;2023-06-26T08:28:26;100440.16;;;27.03;48.07
59240;BME280;45010;53.640;10.578;2023-06-26T08:31:27;100397.69;;;26.84;48.25
59240;BME280;45010;53.640;10.578;2023-06-26T08:34:27;100424.63;;;27.05;47.90
59240;BME280;45010;53.640;10.578;2023-06-26T08:37:27;100426.03;;;27.12;48.15
59240;BME280;45010;53.640;10.578;2023-06-26T08:40:28;100426.34;;;27.16;47.74
59240;BME280;45010;53.640;10.578;2023-06-26T08:43:28;100420.47;;;27.19;47.89
59240;BME280;45010;53.640;10.578;2023-06-26T08:46:28;100425.31;;;27.22;47.47
59240;BME280;45010;53.640;10.578;2023-06-26T08:49:56;100410.34;;;27.26;47.17
59240;BME280;45010;53.640;10.578;2023-06-26T08:53:09;100414.66;;;27.28;47.23
59240;BME280;45010;53.640;10.578;2023-06-26T08:56:13;100416.78;;;27.31;47.36
59240;BME280;45010;53.640;10.578;2023-06-26T08:59:15;100406.66;;;27.33;47.33
59240;BME280;45010;53.640;10.578;2023-06-26T09:02:16;100395.97;;;27.38;47.19
59240;BME280;45010;53.640;10.578;2023-06-26T09:05:17;100395.44;;;27.41;46.97
59240;BME280;45010;53.640;10.578;2023-06-26T09:08:17;100397.06;;;27.42;46.86
59240;BME280;45010;53.640;10.578;2023-06-26T09:11:17;100392.22;;;27.39;46.64
59240;BME280;45010;53.640;10.578;2023-06-26T09:14:18;100404.59;;;27.45;47.08
59240;BME280;45010;53.640;10.578;2023-06-26T09:17:18;100397.13;;;27.52;46.57
59240;BME280;45010;53.640;10.578;2023-06-26T09:20:18;100397.66;;;27.55;46.77
59240;BME280;45010;53.640;10.578;2023-06-26T09:23:21;100399.88;;;27.58;46.72
59240;BME280;45010;53.640;10.578;2023-06-26T09:26:21;100393.66;;;27.57;46.84
59240;BME280;45010;53.640;10.578;2023-06-26T09:29:22;100402.56;;;27.63;46.97
59240;BME280;45010;53.640;10.578;2023-06-26T09:32:26;100403.06;;;27.60;46.70
59240;BME280;45010;53.640;10.578;2023-06-26T09:35:28;100419.72;;;27.67;46.61
59240;BME280;45010;53.640;10.578;2023-06-26T09:38:28;100419.22;;;27.70;46.39
59240;BME280;45010;53.640;10.578;2023-06-26T09:41:28;100422.44;;;27.72;46.49
59240;BME280;45010;53.640;10.578;2023-06-26T09:44:31;100424.84;;;27.74;46.81
59240;BME280;45010;53.640;10.578;2023-06-26T09:47:34;100416.56;;;27.75;46.67
59240;BME280;45010;53.640;10.578;2023-06-26T09:50:35;100412.78;;;27.71;46.29
59240;BME280;45010;53.640;10.578;2023-06-26T09:53:36;100431.31;;;27.78;46.32
59240;BME280;45010;53.640;10.578;2023-06-26T09:56:37;100420.59;;;27.78;46.72
59240;BME280;45010;53.640;10.578;2023-06-26T09:59:37;100424.63;;;27.81;46.64
59240;BME280;45010;53.640;10.578;2023-06-26T10:02:38;100424.34;;;27.82;46.30
59240;BME280;45010;53.640;10.578;2023-06-26T10:05:39;100416.06;;;27.84;46.42
59240;BME280;45010;53.640;10.578;2023-06-26T10:08:41;100407.19;;;27.78;46.72
59240;BME280;45010;53.640;10.578;2023-06-26T10:11:54;100428.13;;;27.86;46.48
59240;BME280;45010;53.640;10.578;2023-06-26T10:14:57;100434.03;;;27.83;47.22
59240;BME280;45010;53.640;10.578;2023-06-26T10:17:58;100440.22;;;27.89;47.08
59240;BME280;45010;53.640;10.578;2023-06-26T10:20:59;100432.16;;;27.89;47.22
59240;BME280;45010;53.640;10.578;2023-06-26T10:24:02;100434.81;;;27.84;47.15
59240;BME280;45010;53.640;10.578;2023-06-26T10:27:10;100466.22;;;27.93;47.26
59240;BME280;45010;53.640;10.578;2023-06-26T10:30:18;100461.66;;;27.89;47.16
59240;BME280;45010;53.640;10.578;2023-06-26T10:33:20;100482.03;;;27.95;47.13
59240;BME280;45010;53.640;10.578;2023-06-26T10:36:28;100465.63;;;27.81;46.79
59240;BME280;45010;53.640;10.578;2023-06-26T10:42:45;100512.38;;;28.06;46.83
59240;BME280;45010;53.640;10.578;2023-06-26T10:45:47;100506.75;;;28.02;46.95
59240;BME280;45010;53.640;10.578;2023-06-26T10:48:59;100514.81;;;28.08;46.36
59240;BME280;45010;53.640;10.578;2023-06-26T10:52:02;100511.06;;;28.09;46.63
59240;BME280;45010;53.640;10.578;2023-06-26T10:55:03;100545.91;;;28.09;46.68
59240;BME280;45010;53.640;10.578;2023-06-26T10:58:03;100556.09;;;28.06;46.66
59240;BME280;45010;53.640;10.578;2023-06-26T11:01:21;100586.38;;;28.07;46.39
59240;BME280;45010;53.640;10.578;2023-06-26T11:04:51;100623.91;;;28.07;46.15
59240;BME280;45010;53.640;10.578;2023-06-26T11:08:06;100614.25;;;28.06;46.59
59240;BME280;45010;53.640;10.578;2023-06-26T11:11:07;100592.03;;;28.05;46.60
59240;BME280;45010;53.640;10.578;2023-06-26T11:14:08;100594.94;;;28.04;46.42
59240;BME280;45010;53.640;10.578;2023-06-26T11:17:09;100578.53;;;27.95;46.36
59240;BME280;45010;53.640;10.578;2023-06-26T11:20:12;100599.50;;;28.03;46.38
59240;BME280;45010;53.640;10.578;2023-06-26T11:23:13;100590.91;;;28.01;46.47
59240;BME280;45010;53.640;10.578;2023-06-26T11:26:18;100572.09;;;27.96;46.21
59240;BME280;45010;53.640;10.578;2023-06-26T11:29:21;100582.34;;;27.99;46.50
59240;BME280;45010;53.640;10.578;2023-06-26T11:32:21;100596.81;;;27.98;46.61
59240;BME280;45010;53.640;10.578;2023-06-26T11:35:25;100579.91;;;27.98;46.51
59240;BME280;45010;53.640;10.578;2023-06-26T11:38:37;100593.56;;;27.96;46.14
59240;BME280;45010;53.640;10.578;2023-06-26T11:41:39;100596.22;;;27.96;46.16
59240;BME280;45010;53.640;10.578;2023-06-26T11:44:41;100582.50;;;27.87;46.49
59240;BME280;45010;53.640;10.578;2023-06-26T11:47:42;100613.91;;;27.92;48.02
59240;BME280;45010;53.640;10.578;2023-06-26T11:50:42;100629.38;;;27.85;49.55
59240;BME280;45010;53.640;10.578;2023-06-26T11:53:44;100634.16;;;27.77;50.07
59240;BME280;45010;53.640;10.578;2023-06-26T11:56:52;100642.16;;;27.72;50.99
59240;BME280;45010;53.640;10.578;2023-06-26T11:59:52;100651.19;;;27.66;50.83
59240;BME280;45010;53.640;10.578;2023-06-26T12:02:53;100643.38;;;27.59;50.83
59240;BME280;45010;53.640;10.578;2023-06-26T12:05:53;100646.78;;;27.55;50.74
59240;BME280;45010;53.640;10.578;2023-06-26T12:08:54;100651.03;;;27.50;51.21
59240;BME280;45010;53.640;10.578;2023-06-26T12:11:56;100645.06;;;27.43;51.09
59240;BME280;45010;53.640;10.578;2023-06-26T12:14:57;100635.09;;;27.38;51.44
59240;BME280;45010;53.640;10.578;2023-06-26T12:17:57;100646.13;;;27.42;51.77
59240;BME280;45010;53.640;10.578;2023-06-26T12:20:58;100654.66;;;27.39;51.75
59240;BME280;45010;53.640;10.578;2023-06-26T12:23:59;100657.28;;;27.34;51.41
59240;BME280;45010;53.640;10.578;2023-06-26T12:27:00;100653.25;;;27.31;51.72
59240;BME280;45010;53.640;10.578;2023-06-26T12:30:03;100643.03;;;27.28;51.81
59240;BME280;45010;53.640;10.578;2023-06-26T12:33:12;100653.75;;;27.28;51.16
59240;BME280;45010;53.640;10.578;2023-06-26T12:36:13;100662.09;;;27.32;50.50
59240;BME280;45010;53.640;10.578;2023-06-26T12:39:18;100664.72;;;27.26;49.54
59240;BME280;45010;53.640;10.578;2023-06-26T12:42:21;100667.34;;;27.21;49.20
59240;BME280;45010;53.640;10.578;2023-06-26T12:45:22;100671.00;;;27.15;48.62
59240;BME280;45010;53.640;10.578;2023-06-26T12:48:45;100677.44;;;27.14;47.24
59240;BME280;45010;53.640;10.578;2023-06-26T12:51:48;100681.66;;;27.10;46.81
59240;BME280;45010;53.640;10.578;2023-06-26T12:54:53;100669.75;;;27.01;46.96
59240;BME280;45010;53.640;10.578;2023-06-26T12:57:54;100674.13;;;27.07;47.46
59240;BME280;45010;53.640;10.578;2023-06-26T13:00:54;100675.75;;;27.08;46.84
59240;BME280;45010;53.640;10.578;2023-06-26T13:03:57;100666.66;;;27.09;47.08
59240;BME280;45010;53.640;10.578;2023-06-26T13:06:58;100671.06;;;26.98;45.59
59240;BME280;45010;53.640;10.578;2023-06-26T13:09:58;100691.75;;;27.03;45.21
59240;BME280;45010;53.640;10.578;2023-06-26T13:12:58;100696.53;;;27.01;44.62
59240;BME280;45010;53.640;10.578;2023-06-26T13:15:59;100698.97;;;27.02;44.68
59240;BME280;45010;53.640;10.578;2023-06-26T13:18:59;100695.50;;;27.02;43.98
59240;BME280;45010;53.640;10.578;2023-06-26T13:22:03;100689.56;;;26.99;43.38
59240;BME280;45010;53.640;10.578;2023-06-26T13:25:03;100695.41;;;26.96;42.96
59240;BME280;45010;53.640;10.578;2023-06-26T13:28:04;100689.56;;;26.99;43.24
59240;BME280;45010;53.640;10.578;2023-06-26T13:31:04;100694.44;;;27.03;43.43
59240;BME280;45010;53.640;10.578;2023-06-26T13:34:04;100693.28;;;26.98;43.05
59240;BME280;45010;53.640;10.578;2023-06-26T13:37:05;100702.38;;;26.97;42.38
59240;BME280;45010;53.640;10.578;2023-06-26T13:40:07;100709.34;;;26.98;42.72
59240;BME280;45010;53.640;10.578;2023-06-26T13:43:07;100719.56;;;27.02;42.56
59240;BME280;45010;53.640;10.578;2023-06-26T13:46:07;100711.28;;;27.03;42.18
59240;BME280;45010;53.640;10.578;2023-06-26T13:49:08;100700.25;;;26.99;41.43
59240;BME280;45010;53.640;10.578;2023-06-26T13:52:08;100705.63;;;26.99;40.88
59240;BME280;45010;53.640;10.578;2023-06-26T13:55:08;100711.47;;;26.96;40.33
59240;BME280;45010;53.640;10.578;2023-06-26T13:58:09;100699.00;;;26.85;39.91
59240;BME280;45010;53.640;10.578;2023-06-26T14:01:11;100710.34;;;26.92;40.29
59240;BME280;45010;53.640;10.578;2023-06-26T14:04:12;100728.00;;;26.93;39.92
59240;BME280;45010;53.640;10.578;2023-06-26T14:07:13;100708.72;;;26.91;39.93
59240;BME280;45010;53.640;10.578;2023-06-26T14:10:14;100720.06;;;26.98;40.32
59240;BME280;45010;53.640;10.578;2023-06-26T14:13:14;100713.66;;;26.99;39.94
59240;BME280;45010;53.640;10.578;2023-06-26T14:16:15;100713.66;;;26.99;39.27
59240;BME280;45010;53.640;10.578;2023-06-26T14:19:18;100715.22;;;26.95;38.91
59240;BME280;45010;53.640;10.578;2023-06-26T14:22:19;100721.66;;;26.99;38.71
59240;BME280;45010;53.640;10.578;2023-06-26T14:25:19;100727.03;;;26.99;38.38
59240;BME280;45010;53.640;10.578;2023-06-26T14:28:20;100734.25;;;26.99;38.35
59240;BME280;45010;53.640;10.578;2023-06-26T14:31:20;100740.91;;;26.96;38.46
59240;BME280;45010;53.640;10.578;2023-06-26T14:34:22;100739.63;;;26.99;38.34
59240;BME280;45010;53.640;10.578;2023-06-26T14:37:23;100723.25;;;26.95;38.51
59240;BME280;45010;53.640;10.578;2023-06-26T14:40:24;100727.09;;;27.05;38.77
59240;BME280;45010;53.640;10.578;2023-06-26T14:43:24;100729.78;;;27.05;38.44
59240;BME280;45010;53.640;10.578;2023-06-26T14:46:24;100729.78;;;27.05;38.58
59240;BME280;45010;53.640;10.578;2023-06-26T14:49:24;100735.69;;;27.07;38.26
59240;BME280;45010;53.640;10.578;2023-06-26T14:52:25;100735.75;;;27.12;38.43
59240;BME280;45010;53.640;10.578;2023-06-26T14:55:25;100742.78;;;27.18;38.33
59240;BME280;45010;53.640;10.578;2023-06-26T14:58:26;100743.91;;;27.22;38.12
59240;BME280;45010;53.640;10.578;2023-06-26T15:01:27;100749.34;;;27.28;37.83
59240;BME280;45010;53.640;10.578;2023-06-26T15:04:27;100734.41;;;27.32;37.32
59240;BME280;45010;53.640;10.578;2023-06-26T15:07:27;100734.72;;;27.35;37.63
59240;BME280;45010;53.640;10.578;2023-06-26T15:10:28;100723.13;;;27.30;37.07
59240;BME280;45010;53.640;10.578;2023-06-26T15:13:28;100713.28;;;27.35;37.07
59240;BME280;45010;53.640;10.578;2023-06-26T15:16:29;100720.03;;;27.43;36.73
59240;BME280;45010;53.640;10.578;2023-06-26T15:19:29;100715.25;;;27.45;36.23
59240;BME280;45010;53.640;10.578;2023-06-26T15:22:29;100721.16;;;27.47;36.47
59240;BME280;45010;53.640;10.578;2023-06-26T15:25:30;100716.38;;;27.49;35.95
59240;BME280;45010;53.640;10.578;2023-06-26T15:28:31;100727.66;;;27.51;35.95
59240;BME280;45010;53.640;10.578;2023-06-26T15:31:32;100732.19;;;27.51;36.43
59240;BME280;45010;53.640;10.578;2023-06-26T15:34:32;100744.28;;;27.53;36.71
59240;BME280;45010;53.640;10.578;2023-06-26T15:37:32;100740.28;;;27.56;37.19
59240;BME280;45010;53.640;10.578;2023-06-26T15:40:33;100744.38;;;27.59;37.45
59240;BME280;45010;53.640;10.578;2023-06-26T15:43:33;100749.25;;;27.62;37.51
59240;BME280;45010;53.640;10.578;2023-06-26T15:46:33;100751.41;;;27.65;37.36